Time,TemperatureF,DewpointF,PressureIn,WindDirection,WindDirectionDegrees,WindSpeedMPH,WindSpeedGustMPH,Humidity,HourlyPrecipIn,Conditions,Clouds,dailyrainin,SolarRadiationWatts/m^2,SoftwareType,DateUTC
2013-07-24 00:09:00,68.7,59.0,29.65,West,268,10.0,-999.0,71,-99.99,,,0.00,0,weatherlink.com 1.10,2013-07-24 04:09:00,
2013-07-24 00:24:00,68.6,59.0,29.66,West,273,6.0,-999.0,71,-99.99,,,0.00,0,weatherlink.com 1.10,2013-07-24 04:24:00,
2013-07-24 00:39:00,68.5,59.0,29.66,West,279,9.0,-999.0,72,-99.99,,,0.00,0,weatherlink.com 1.10,2013-07-24 04:39:00,
2013-07-24 00:54:00,68.3,59.0,29.66,West,275,7.0,-999.0,72,-99.99,,,0.00,0,weatherlink.com 1.10,2013-07-24 04:54:00,
2013-07-24 01:09:00,67.9,59.0,29.66,West,273,6.0,-999.0,73,-99.99,,,0.00,0,weatherlink.com 1.10,2013-07-24 05:09:00,
2013-07-24 01:24:00,67.7,59.0,29.66,WSW,243,5.0,-999.0,74,-99.99,,,0.00,0,weatherlink.com 1.10,2013-07-24 05:24:00,
2013-07-24 01:40:00,67.3,59.0,29.66,WSW,252,4.0,-999.0,74,-99.99,,,0.01,0,weatherlink.com 1.10,2013-07-24 05:40:00,
2013-07-24 01:55:00,67.1,59.0,29.66,West,279,7.0,-999.0,74,-99.99,,,0.01,0,weatherlink.com 1.10,2013-07-24 05:55:00,
2013-07-24 02:10:00,66.9,58.0,29.67,West,275,7.0,-999.0,73,-99.99,,,0.01,0,weatherlink.com 1.10,2013-07-24 06:10:00,
2013-07-24 02:25:00,66.7,58.0,29.67,West,265,9.0,-999.0,73,-99.99,,,0.01,0,weatherlink.com 1.10,2013-07-24 06:25:00,
2013-07-24 02:40:00,66.6,58.0,29.67,WSW,243,4.0,-999.0,73,-99.99,,,0.01,0,weatherlink.com 1.10,2013-07-24 06:40:00,
2013-07-24 02:55:00,66.4,58.0,29.68,WSW,248,2.0,-999.0,73,-99.99,,,0.01,0,weatherlink.com 1.10,2013-07-24 06:55:00,
2013-07-24 03:10:00,66.2,57.0,29.68,WSW,256,7.0,-999.0,73,-99.99,,,0.01,0,weatherlink.com 1.10,2013-07-24 07:10:00,
2013-07-24 03:25:00,66.1,58.0,29.68,West,269,5.0,-999.0,74,-99.99,,,0.01,0,weatherlink.com 1.10,2013-07-24 07:25:00,
2013-07-24 03:40:00,66.0,58.0,29.69,WNW,282,9.0,-999.0,74,-99.99,,,0.01,0,weatherlink.com 1.10,2013-07-24 07:40:00,
2013-07-24 03:55:00,65.8,57.0,29.69,WSW,240,8.0,-999.0,74,-99.99,,,0.01,0,weatherlink.com 1.10,2013-07-24 07:55:00,
2013-07-24 04:10:00,65.6,58.0,29.69,West,278,4.0,-999.0,76,-99.99,,,0.01,0,weatherlink.com 1.10,2013-07-24 08:10:00,
2013-07-24 04:25:00,65.2,58.0,29.69,West,279,5.0,-999.0,77,-99.99,,,0.01,0,weatherlink.com 1.10,2013-07-24 08:25:00,
2013-07-24 04:40:00,64.7,58.0,29.70,WSW,256,10.0,-999.0,78,-99.99,,,0.01,0,weatherlink.com 1.10,2013-07-24 08:40:00,
2013-07-24 04:55:00,64.5,58.0,29.70,SW,225,9.0,-999.0,79,-99.99,,,0.01,0,weatherlink.com 1.10,2013-07-24 08:55:00,
2013-07-24 05:10:00,64.2,58.0,29.70,WSW,243,7.0,-999.0,80,-99.99,,,0.01,0,weatherlink.com 1.10,2013-07-24 09:10:00,
2013-07-24 05:25:00,64.0,58.0,29.70,West,269,8.0,-999.0,81,-99.99,,,0.01,0,weatherlink.com 1.10,2013-07-24 09:25:00,
2013-07-24 05:40:00,64.0,58.0,29.71,West,275,7.0,-999.0,81,-99.99,,,0.01,0,weatherlink.com 1.10,2013-07-24 09:40:00,
2013-07-24 05:55:00,64.1,58.0,29.71,WNW,296,15.0,-999.0,80,-99.99,,,0.01,0,weatherlink.com 1.10,2013-07-24 09:55:00,
2013-07-24 06:10:00,63.8,57.0,29.72,WNW,298,5.0,-999.0,78,-99.99,,,0.01,9,weatherlink.com 1.10,2013-07-24 10:10:00,
2013-07-24 06:25:00,63.4,56.0,29.73,West,274,11.0,-999.0,77,-99.99,,,0.01,25,weatherlink.com 1.10,2013-07-24 10:25:00,
2013-07-24 06:40:00,63.0,56.0,29.74,WNW,292,14.0,-999.0,77,-99.99,,,0.01,28,weatherlink.com 1.10,2013-07-24 10:40:00,
2013-07-24 06:55:00,62.6,55.0,29.75,WNW,291,12.0,-999.0,77,-99.99,,,0.01,35,weatherlink.com 1.10,2013-07-24 10:55:00,
2013-07-24 07:10:00,62.0,55.0,29.76,West,277,10.0,-999.0,77,-99.99,,,0.01,46,weatherlink.com 1.10,2013-07-24 11:10:00,
2013-07-24 07:25:00,61.8,54.0,29.77,NW,304,12.0,-999.0,76,-99.99,,,0.01,51,weatherlink.com 1.10,2013-07-24 11:25:00,
2013-07-24 07:41:00,61.7,53.0,29.78,West,278,5.0,-999.0,74,-99.99,,,0.01,107,weatherlink.com 1.10,2013-07-24 11:41:00,
2013-07-24 07:56:00,61.7,54.0,29.79,West,267,11.0,-999.0,75,-99.99,,,0.01,139,weatherlink.com 1.10,2013-07-24 11:56:00,
2013-07-24 08:11:00,61.5,53.0,29.79,WNW,297,8.0,-999.0,74,-99.99,,,0.01,121,weatherlink.com 1.10,2013-07-24 12:11:00,
2013-07-24 08:26:00,61.3,53.0,29.80,WSW,250,9.0,-999.0,75,-99.99,,,0.02,107,weatherlink.com 1.10,2013-07-24 12:26:00,
2013-07-24 08:41:00,60.8,53.0,29.82,West,273,9.0,-999.0,76,-99.99,,,0.02,74,weatherlink.com 1.10,2013-07-24 12:41:00,
2013-07-24 08:56:00,60.3,53.0,29.82,West,273,8.0,-999.0,76,-99.99,,,0.02,155,weatherlink.com 1.10,2013-07-24 12:56:00,
2013-07-24 09:11:00,60.4,52.0,29.83,West,270,8.0,-999.0,75,-99.99,,,0.02,132,weatherlink.com 1.10,2013-07-24 13:11:00,
2013-07-24 09:26:00,60.2,52.0,29.83,NW,320,10.0,-999.0,74,-99.99,,,0.02,132,weatherlink.com 1.10,2013-07-24 13:26:00,
2013-07-24 09:41:00,60.0,52.0,29.84,West,275,9.0,-999.0,75,-99.99,,,0.02,213,weatherlink.com 1.10,2013-07-24 13:41:00,
2013-07-24 09:56:00,60.3,52.0,29.85,WNW,302,8.0,-999.0,74,-99.99,,,0.02,227,weatherlink.com 1.10,2013-07-24 13:56:00,
2013-07-24 10:26:00,60.8,52.0,29.86,WNW,284,5.0,-999.0,73,-99.99,,,0.02,336,weatherlink.com 1.10,2013-07-24 14:26:00,
2013-07-24 10:41:00,61.3,51.0,29.87,SW,234,8.0,-999.0,69,-99.99,,,0.02,352,weatherlink.com 1.10,2013-07-24 14:41:00,
2013-07-24 10:56:00,61.2,51.0,29.87,WNW,291,8.0,-999.0,69,-99.99,,,0.02,381,weatherlink.com 1.10,2013-07-24 14:56:00,
2013-07-24 11:11:00,61.3,51.0,29.88,West,271,13.0,-999.0,69,-99.99,,,0.02,636,weatherlink.com 1.10,2013-07-24 15:11:00,
2013-07-24 11:26:00,61.9,52.0,29.89,WNW,294,6.0,-999.0,69,-99.99,,,0.02,441,weatherlink.com 1.10,2013-07-24 15:26:00,
2013-07-24 11:41:00,62.0,52.0,29.89,West,265,7.0,-999.0,69,-99.99,,,0.02,1216,weatherlink.com 1.10,2013-07-24 15:41:00,
2013-07-24 12:11:00,62.1,52.0,29.90,WNW,300,6.0,-999.0,69,-99.99,,,0.02,369,weatherlink.com 1.10,2013-07-24 16:11:00,
2013-07-24 12:26:00,62.6,51.0,29.91,WNW,303,6.0,-999.0,67,-99.99,,,0.02,299,weatherlink.com 1.10,2013-07-24 16:26:00,
2013-07-24 12:41:00,62.0,52.0,29.92,WNW,284,5.0,-999.0,69,-99.99,,,0.02,378,weatherlink.com 1.10,2013-07-24 16:41:00,
2013-07-24 12:56:00,61.5,52.0,29.92,WNW,301,9.0,-999.0,71,-99.99,,,0.02,304,weatherlink.com 1.10,2013-07-24 16:56:00,
2013-07-24 13:11:00,61.6,52.0,29.91,West,260,1.0,-999.0,71,-99.99,,,0.02,1288,weatherlink.com 1.10,2013-07-24 17:11:00,
2013-07-24 13:26:00,63.1,52.0,29.92,West,275,7.0,-999.0,68,-99.99,,,0.02,487,weatherlink.com 1.10,2013-07-24 17:26:00,
2013-07-24 13:41:00,63.3,52.0,29.91,NW,309,10.0,-999.0,66,-99.99,,,0.02,378,weatherlink.com 1.10,2013-07-24 17:41:00,
2013-07-24 13:57:00,63.5,53.0,29.91,WSW,248,12.0,-999.0,69,-99.99,,,0.02,582,weatherlink.com 1.10,2013-07-24 17:57:00,
2013-07-24 14:11:00,63.6,52.0,29.92,West,259,10.0,-999.0,67,-99.99,,,0.02,381,weatherlink.com 1.10,2013-07-24 18:11:00,
2013-07-24 14:26:00,63.3,53.0,29.92,West,281,12.0,-999.0,68,-99.99,,,0.02,770,weatherlink.com 1.10,2013-07-24 18:26:00,
2013-07-24 14:42:00,62.8,52.0,29.92,WNW,286,7.0,-999.0,68,-99.99,,,0.02,390,weatherlink.com 1.10,2013-07-24 18:42:00,
2013-07-24 14:57:00,62.9,52.0,29.93,NW,306,11.0,-999.0,67,-99.99,,,0.02,329,weatherlink.com 1.10,2013-07-24 18:57:00,
2013-07-24 15:16:00,62.2,52.0,29.93,NNW,329,4.0,-999.0,69,-99.99,,,0.02,552,weatherlink.com 1.10,2013-07-24 19:16:00,
2013-07-24 15:41:00,62.7,52.0,29.93,WNW,293,7.0,-999.0,67,-99.99,,,0.02,471,weatherlink.com 1.10,2013-07-24 19:41:00,
2013-07-24 15:56:00,63.0,51.0,29.93,NNW,327,10.0,-999.0,65,-99.99,,,0.02,503,weatherlink.com 1.10,2013-07-24 19:56:00,
2013-07-24 16:11:00,63.0,51.0,29.93,NW,306,13.0,-999.0,64,-99.99,,,0.02,406,weatherlink.com 1.10,2013-07-24 20:11:00,
2013-07-24 16:26:00,63.9,50.0,29.93,WSW,255,10.0,-999.0,62,-99.99,,,0.02,763,weatherlink.com 1.10,2013-07-24 20:26:00,
2013-07-24 16:41:00,64.8,49.0,29.94,WNW,288,8.0,-999.0,57,-99.99,,,0.02,673,weatherlink.com 1.10,2013-07-24 20:41:00,
2013-07-24 17:11:00,65.2,50.0,29.95,WNW,299,6.0,-999.0,58,-99.99,,,0.02,610,weatherlink.com 1.10,2013-07-24 21:11:00,
2013-07-24 17:41:00,65.0,50.0,29.95,WNW,286,7.0,-999.0,58,-99.99,,,0.02,512,weatherlink.com 1.10,2013-07-24 21:41:00,
2013-07-24 18:11:00,65.0,51.0,29.95,WNW,294,6.0,-999.0,60,-99.99,,,0.02,408,weatherlink.com 1.10,2013-07-24 22:11:00,
2013-07-24 18:41:00,65.1,50.0,29.96,NW,305,6.0,-999.0,59,-99.99,,,0.02,308,weatherlink.com 1.10,2013-07-24 22:41:00,
2013-07-24 18:56:00,64.6,51.0,29.96,NW,325,7.0,-999.0,61,-99.99,,,0.02,251,weatherlink.com 1.10,2013-07-24 22:56:00,
2013-07-24 19:26:00,63.9,51.0,29.97,NNW,331,1.0,-999.0,63,-99.99,,,0.02,146,weatherlink.com 1.10,2013-07-24 23:26:00,
2013-07-24 19:41:00,63.8,51.0,29.97,NNW,343,3.0,-999.0,63,-99.99,,,0.02,93,weatherlink.com 1.10,2013-07-24 23:41:00,
2013-07-24 19:56:00,63.9,52.0,29.97,NNW,343,0.0,-999.0,65,-99.99,,,0.02,53,weatherlink.com 1.10,2013-07-24 23:56:00,
2013-07-24 20:11:00,64.0,53.0,29.97,NNW,343,0.0,-999.0,68,-99.99,,,0.02,21,weatherlink.com 1.10,2013-07-25 00:11:00,
2013-07-24 20:26:00,62.3,52.0,29.97,NNW,343,2.0,-999.0,70,-99.99,,,0.02,7,weatherlink.com 1.10,2013-07-25 00:26:00,
2013-07-24 20:41:00,60.8,53.0,29.98,NNW,343,0.0,-999.0,75,-99.99,,,0.02,0,weatherlink.com 1.10,2013-07-25 00:41:00,
2013-07-24 20:56:00,59.7,53.0,29.98,NNW,343,1.0,-999.0,78,-99.99,,,0.02,0,weatherlink.com 1.10,2013-07-25 00:56:00,
2013-07-24 21:12:00,58.7,53.0,29.99,NNW,343,0.0,-999.0,80,-99.99,,,0.02,0,weatherlink.com 1.10,2013-07-25 01:12:00,
2013-07-24 21:27:00,57.9,52.0,29.99,NNW,343,0.0,-999.0,82,-99.99,,,0.02,0,weatherlink.com 1.10,2013-07-25 01:27:00,
2013-07-24 21:42:00,57.3,52.0,30.00,NNW,343,0.0,-999.0,82,-99.99,,,0.02,0,weatherlink.com 1.10,2013-07-25 01:42:00,
2013-07-24 21:57:00,56.7,52.0,30.00,NNW,343,0.0,-999.0,84,-99.99,,,0.02,0,weatherlink.com 1.10,2013-07-25 01:57:00,
2013-07-24 22:12:00,56.1,51.0,30.00,NNW,343,0.0,-999.0,84,-99.99,,,0.02,0,weatherlink.com 1.10,2013-07-25 02:12:00,
2013-07-24 22:27:00,55.7,52.0,30.00,NNW,343,0.0,-999.0,86,-99.99,,,0.02,0,weatherlink.com 1.10,2013-07-25 02:27:00,
2013-07-24 22:42:00,55.3,51.0,30.00,NNW,343,0.0,-999.0,86,-99.99,,,0.02,0,weatherlink.com 1.10,2013-07-25 02:42:00,
2013-07-24 22:57:00,55.0,51.0,30.01,NNW,343,0.0,-999.0,86,-99.99,,,0.02,0,weatherlink.com 1.10,2013-07-25 02:57:00,
2013-07-24 23:12:00,54.7,51.0,30.01,NNW,343,0.0,-999.0,87,-99.99,,,0.02,0,weatherlink.com 1.10,2013-07-25 03:12:00,
2013-07-24 23:27:00,54.4,51.0,30.02,NNW,343,0.0,-999.0,87,-99.99,,,0.02,0,weatherlink.com 1.10,2013-07-25 03:27:00,
2013-07-24 23:42:00,54.1,51.0,30.02,NNW,343,0.0,-999.0,88,-99.99,,,0.02,0,weatherlink.com 1.10,2013-07-25 03:42:00,